sensor_id;sensor_type;location;lat;lon;timestamp;temperature;humidity
38118;DHT22;23928;47.562;7.508;2022-08-21T00:00:11;17.10;99.90
38118;DHT22;23928;47.562;7.508;2022-08-21T00:02:43;17.10;99.90
38118;DHT22;23928;47.562;7.508;2022-08-21T00:05:09;17.00;99.90
38118;DHT22;23928;47.562;7.508;2022-08-21T00:07:35;16.80;99.90
38118;DHT22;23928;47.562;7.508;2022-08-21T00:10:00;16.80;99.90
38118;DHT22;23928;47.562;7.508;2022-08-21T00:12:26;17.10;99.90
38118;DHT22;23928;47.562;7.508;2022-08-21T00:14:53;17.30;99.90
38118;DHT22;23928;47.562;7.508;2022-08-21T00:17:19;17.50;99.90
38118;DHT22;23928;47.562;7.508;2022-08-21T00:19:44;17.50;99.90
38118;DHT22;23928;47.562;7.508;2022-08-21T00:22:10;17.50;99.90
38118;DHT22;23928;47.562;7.508;2022-08-21T00:24:35;17.50;99.90
38118;DHT22;23928;47.562;7.508;2022-08-21T00:27:01;17.50;99.90
38118;DHT22;23928;47.562;7.508;2022-08-21T00:29:27;17.50;99.90
38118;DHT22;23928;47.562;7.508;2022-08-21T00:31:53;17.50;99.90
38118;DHT22;23928;47.562;7.508;2022-08-21T00:34:19;17.60;99.90
38118;DHT22;23928;47.562;7.508;2022-08-21T00:36:44;17.60;99.90
38118;DHT22;23928;47.562;7.508;2022-08-21T00:39:10;17.40;99.90
38118;DHT22;23928;47.562;7.508;2022-08-21T00:41:37;17.30;99.90
38118;DHT22;23928;47.562;7.508;2022-08-21T00:44:07;17.40;99.90
38118;DHT22;23928;47.562;7.508;2022-08-21T00:46:33;17.50;99.90
38118;DHT22;23928;47.562;7.508;2022-08-21T00:48:59;17.50;99.90
38118;DHT22;23928;47.562;7.508;2022-08-21T00:51:35;17.40;99.90
38118;DHT22;23928;47.562;7.508;2022-08-21T00:54:02;17.50;99.90
38118;DHT22;23928;47.562;7.508;2022-08-21T00:56:28;17.40;99.90
38118;DHT22;23928;47.562;7.508;2022-08-21T00:58:56;17.30;99.90
38118;DHT22;23928;47.562;7.508;2022-08-21T01:01:22;17.20;99.90
38118;DHT22;23928;47.562;7.508;2022-08-21T01:03:49;17.20;99.90
38118;DHT22;23928;47.562;7.508;2022-08-21T01:06:15;17.10;99.90
38118;DHT22;23928;47.562;7.508;2022-08-21T01:08:40;17.20;99.90
38118;DHT22;23928;47.562;7.508;2022-08-21T01:11:06;17.30;99.90
38118;DHT22;23928;47.562;7.508;2022-08-21T01:13:36;17.20;99.90
38118;DHT22;23928;47.562;7.508;2022-08-21T01:16:08;17.10;99.90
38118;DHT22;23928;47.562;7.508;2022-08-21T01:18:34;17.10;99.90
38118;DHT22;23928;47.562;7.508;2022-08-21T01:21:14;16.80;99.90
38118;DHT22;23928;47.562;7.508;2022-08-21T01:23:44;16.60;99.90
38118;DHT22;23928;47.562;7.508;2022-08-21T01:26:12;16.40;99.90
38118;DHT22;23928;47.562;7.508;2022-08-21T01:28:42;16.30;99.90
38118;DHT22;23928;47.562;7.508;2022-08-21T01:31:10;16.40;99.90
38118;DHT22;23928;47.562;7.508;2022-08-21T01:33:39;16.60;99.90
38118;DHT22;23928;47.562;7.508;2022-08-21T01:36:05;16.70;99.90
38118;DHT22;23928;47.562;7.508;2022-08-21T01:38:31;16.70;99.90
38118;DHT22;23928;47.562;7.508;2022-08-21T01:40:57;16.70;99.90
38118;DHT22;23928;47.562;7.508;2022-08-21T01:43:23;16.70;99.90
38118;DHT22;23928;47.562;7.508;2022-08-21T01:45:49;16.90;99.90
38118;DHT22;23928;47.562;7.508;2022-08-21T01:48:14;16.90;99.90
38118;DHT22;23928;47.562;7.508;2022-08-21T01:50:40;17.00;99.90
38118;DHT22;23928;47.562;7.508;2022-08-21T01:53:06;17.10;99.90
38118;DHT22;23928;47.562;7.508;2022-08-21T01:55:31;17.10;99.90
38118;DHT22;23928;47.562;7.508;2022-08-21T01:57:58;17.10;99.90
38118;DHT22;23928;47.562;7.508;2022-08-21T02:00:24;17.10;99.90
38118;DHT22;23928;47.562;7.508;2022-08-21T02:02:51;16.90;99.90
38118;DHT22;23928;47.562;7.508;2022-08-21T02:05:17;16.80;99.90
38118;DHT22;23928;47.562;7.508;2022-08-21T02:07:47;16.60;99.90
38118;DHT22;23928;47.562;7.508;2022-08-21T02:10:17;16.60;99.90
38118;DHT22;23928;47.562;7.508;2022-08-21T02:12:43;16.50;99.90
38118;DHT22;23928;47.562;7.508;2022-08-21T02:15:09;16.50;99.90
38118;DHT22;23928;47.562;7.508;2022-08-21T02:17:50;16.30;99.90
38118;DHT22;23928;47.562;7.508;2022-08-21T02:20:19;16.30;99.90
38118;DHT22;23928;47.562;7.508;2022-08-21T02:22:45;16.20;99.90
38118;DHT22;23928;47.562;7.508;2022-08-21T02:25:11;16.30;99.90
38118;DHT22;23928;47.562;7.508;2022-08-21T02:27:41;16.50;99.90
38118;DHT22;23928;47.562;7.508;2022-08-21T02:30:10;16.40;99.90
38118;DHT22;23928;47.562;7.508;2022-08-21T02:32:36;16.40;99.90
38118;DHT22;23928;47.562;7.508;2022-08-21T02:35:03;16.30;99.90
38118;DHT22;23928;47.562;7.508;2022-08-21T02:37:28;16.20;99.90
38118;DHT22;23928;47.562;7.508;2022-08-21T02:39:54;16.10;99.90
38118;DHT22;23928;47.562;7.508;2022-08-21T02:42:20;16.20;99.90
38118;DHT22;23928;47.562;7.508;2022-08-21T02:44:45;16.10;99.90
38118;DHT22;23928;47.562;7.508;2022-08-21T02:47:11;16.10;99.90
38118;DHT22;23928;47.562;7.508;2022-08-21T02:49:36;16.10;99.90
38118;DHT22;23928;47.562;7.508;2022-08-21T02:52:02;16.30;99.90
38118;DHT22;23928;47.562;7.508;2022-08-21T02:54:29;16.20;99.90
38118;DHT22;23928;47.562;7.508;2022-08-21T02:56:54;16.20;99.90
38118;DHT22;23928;47.562;7.508;2022-08-21T02:59:20;16.20;99.90
38118;DHT22;23928;47.562;7.508;2022-08-21T03:01:45;16.20;99.90
38118;DHT22;23928;47.562;7.508;2022-08-21T03:04:11;16.20;99.90
38118;DHT22;23928;47.562;7.508;2022-08-21T03:06:37;16.20;99.90
38118;DHT22;23928;47.562;7.508;2022-08-21T03:09:02;16.00;99.90
38118;DHT22;23928;47.562;7.508;2022-08-21T03:11:28;15.80;99.90
38118;DHT22;23928;47.562;7.508;2022-08-21T03:13:54;15.70;99.90
38118;DHT22;23928;47.562;7.508;2022-08-21T03:16:19;15.60;99.90
38118;DHT22;23928;47.562;7.508;2022-08-21T03:18:46;15.50;99.90
38118;DHT22;23928;47.562;7.508;2022-08-21T03:21:11;15.40;99.90
38118;DHT22;23928;47.562;7.508;2022-08-21T03:23:38;15.40;99.90
38118;DHT22;23928;47.562;7.508;2022-08-21T03:26:05;15.50;99.90
38118;DHT22;23928;47.562;7.508;2022-08-21T03:28:31;15.60;99.90
38118;DHT22;23928;47.562;7.508;2022-08-21T03:30:57;15.80;99.90
38118;DHT22;23928;47.562;7.508;2022-08-21T03:33:23;15.90;99.90
38118;DHT22;23928;47.562;7.508;2022-08-21T03:36:04;15.80;99.90
38118;DHT22;23928;47.562;7.508;2022-08-21T03:38:32;15.90;99.90
38118;DHT22;23928;47.562;7.508;2022-08-21T03:40:59;16.10;99.90
38118;DHT22;23928;47.562;7.508;2022-08-21T03:43:26;15.90;99.90
38118;DHT22;23928;47.562;7.508;2022-08-21T03:45:52;15.80;99.90
38118;DHT22;23928;47.562;7.508;2022-08-21T03:48:17;15.70;99.90
38118;DHT22;23928;47.562;7.508;2022-08-21T03:50:44;15.80;99.90
38118;DHT22;23928;47.562;7.508;2022-08-21T03:53:13;15.60;99.90
38118;DHT22;23928;47.562;7.508;2022-08-21T03:55:39;15.60;99.90
38118;DHT22;23928;47.562;7.508;2022-08-21T03:58:05;15.50;99.90
38118;DHT22;23928;47.562;7.508;2022-08-21T04:00:31;15.40;99.90
38118;DHT22;23928;47.562;7.508;2022-08-21T04:02:57;15.40;99.90
38118;DHT22;23928;47.562;7.508;2022-08-21T04:05:23;15.50;99.90
38118;DHT22;23928;47.562;7.508;2022-08-21T04:08:00;15.60;99.90
38118;DHT22;23928;47.562;7.508;2022-08-21T04:10:28;15.60;99.90
38118;DHT22;23928;47.562;7.508;2022-08-21T04:12:56;15.60;99.90
38118;DHT22;23928;47.562;7.508;2022-08-21T04:15:24;15.50;99.90
38118;DHT22;23928;47.562;7.508;2022-08-21T04:17:50;15.30;99.90
38118;DHT22;23928;47.562;7.508;2022-08-21T04:20:17;15.20;99.90
38118;DHT22;23928;47.562;7.508;2022-08-21T04:22:44;15.10;99.90
38118;DHT22;23928;47.562;7.508;2022-08-21T04:25:12;15.00;99.90
38118;DHT22;23928;47.562;7.508;2022-08-21T04:27:38;14.90;99.90
38118;DHT22;23928;47.562;7.508;2022-08-21T04:30:06;14.90;99.90
38118;DHT22;23928;47.562;7.508;2022-08-21T04:32:32;14.90;99.90
38118;DHT22;23928;47.562;7.508;2022-08-21T04:35:03;14.90;99.90
38118;DHT22;23928;47.562;7.508;2022-08-21T04:37:29;14.80;99.90
38118;DHT22;23928;47.562;7.508;2022-08-21T04:39:55;14.90;99.90
38118;DHT22;23928;47.562;7.508;2022-08-21T04:42:25;14.80;99.90
38118;DHT22;23928;47.562;7.508;2022-08-21T04:44:51;14.70;99.90
38118;DHT22;23928;47.562;7.508;2022-08-21T04:47:17;14.70;99.90
38118;DHT22;23928;47.562;7.508;2022-08-21T04:49:43;14.80;99.90
38118;DHT22;23928;47.562;7.508;2022-08-21T04:52:10;14.80;99.90
38118;DHT22;23928;47.562;7.508;2022-08-21T04:54:36;14.90;99.90
38118;DHT22;23928;47.562;7.508;2022-08-21T04:57:06;15.10;99.90
38118;DHT22;23928;47.562;7.508;2022-08-21T04:59:36;15.10;99.90
38118;DHT22;23928;47.562;7.508;2022-08-21T05:02:05;15.00;99.90
38118;DHT22;23928;47.562;7.508;2022-08-21T05:04:33;14.90;99.90
38118;DHT22;23928;47.562;7.508;2022-08-21T05:07:02;14.90;99.90
38118;DHT22;23928;47.562;7.508;2022-08-21T05:09:29;14.90;99.90
38118;DHT22;23928;47.562;7.508;2022-08-21T05:11:55;14.90;99.90
38118;DHT22;23928;47.562;7.508;2022-08-21T05:14:21;14.90;99.90
38118;DHT22;23928;47.562;7.508;2022-08-21T05:16:47;15.00;99.90
38118;DHT22;23928;47.562;7.508;2022-08-21T05:19:13;15.00;99.90
38118;DHT22;23928;47.562;7.508;2022-08-21T05:21:42;15.00;99.90
38118;DHT22;23928;47.562;7.508;2022-08-21T05:24:09;15.10;99.90
38118;DHT22;23928;47.562;7.508;2022-08-21T05:26:35;15.10;99.90
38118;DHT22;23928;47.562;7.508;2022-08-21T05:29:02;15.20;99.90
38118;DHT22;23928;47.562;7.508;2022-08-21T05:31:28;15.30;99.90
38118;DHT22;23928;47.562;7.508;2022-08-21T05:33:53;15.20;99.90
38118;DHT22;23928;47.562;7.508;2022-08-21T05:36:19;15.30;99.90
38118;DHT22;23928;47.562;7.508;2022-08-21T05:38:45;15.30;99.90
38118;DHT22;23928;47.562;7.508;2022-08-21T05:41:11;15.50;99.90
38118;DHT22;23928;47.562;7.508;2022-08-21T05:43:36;15.80;99.90
38118;DHT22;23928;47.562;7.508;2022-08-21T05:46:03;16.10;99.90
38118;DHT22;23928;47.562;7.508;2022-08-21T05:48:29;16.20;99.90
38118;DHT22;23928;47.562;7.508;2022-08-21T05:50:55;16.20;99.90
38118;DHT22;23928;47.562;7.508;2022-08-21T05:53:22;16.20;99.90
38118;DHT22;23928;47.562;7.508;2022-08-21T05:55:49;16.30;99.90
38118;DHT22;23928;47.562;7.508;2022-08-21T05:58:18;16.40;99.90
38118;DHT22;23928;47.562;7.508;2022-08-21T06:00:45;16.50;99.90
38118;DHT22;23928;47.562;7.508;2022-08-21T06:03:38;16.70;99.90
38118;DHT22;23928;47.562;7.508;2022-08-21T06:06:04;17.00;99.90
38118;DHT22;23928;47.562;7.508;2022-08-21T06:08:30;16.90;99.90
38118;DHT22;23928;47.562;7.508;2022-08-21T06:10:58;16.90;99.90
38118;DHT22;23928;47.562;7.508;2022-08-21T06:13:24;16.90;99.90
38118;DHT22;23928;47.562;7.508;2022-08-21T06:15:59;16.90;99.90
38118;DHT22;23928;47.562;7.508;2022-08-21T06:18:25;17.00;99.90
38118;DHT22;23928;47.562;7.508;2022-08-21T06:20:51;17.00;99.90
38118;DHT22;23928;47.562;7.508;2022-08-21T06:23:16;17.00;99.90
38118;DHT22;23928;47.562;7.508;2022-08-21T06:25:42;16.90;99.90
38118;DHT22;23928;47.562;7.508;2022-08-21T06:28:09;16.90;99.90
38118;DHT22;23928;47.562;7.508;2022-08-21T06:30:36;17.10;99.90
38118;DHT22;23928;47.562;7.508;2022-08-21T06:33:03;17.20;99.90
38118;DHT22;23928;47.562;7.508;2022-08-21T06:35:29;17.10;99.90
38118;DHT22;23928;47.562;7.508;2022-08-21T06:37:56;17.20;99.90
38118;DHT22;23928;47.562;7.508;2022-08-21T06:40:22;17.20;99.90
38118;DHT22;23928;47.562;7.508;2022-08-21T06:42:48;17.10;99.90
38118;DHT22;23928;47.562;7.508;2022-08-21T06:45:14;17.30;99.90
38118;DHT22;23928;47.562;7.508;2022-08-21T06:47:40;17.30;99.90
38118;DHT22;23928;47.562;7.508;2022-08-21T06:50:06;17.40;99.90
38118;DHT22;23928;47.562;7.508;2022-08-21T06:52:38;17.50;99.90
38118;DHT22;23928;47.562;7.508;2022-08-21T06:55:07;17.50;99.90
38118;DHT22;23928;47.562;7.508;2022-08-21T06:57:34;17.60;99.90
38118;DHT22;23928;47.562;7.508;2022-08-21T06:59:59;17.70;99.90
38118;DHT22;23928;47.562;7.508;2022-08-21T07:02:25;17.80;99.90
38118;DHT22;23928;47.562;7.508;2022-08-21T07:04:51;17.80;99.90
38118;DHT22;23928;47.562;7.508;2022-08-21T07:07:17;17.70;99.90
38118;DHT22;23928;47.562;7.508;2022-08-21T07:09:43;17.80;99.90
38118;DHT22;23928;47.562;7.508;2022-08-21T07:12:09;17.90;99.90
38118;DHT22;23928;47.562;7.508;2022-08-21T07:14:35;18.00;99.90
38118;DHT22;23928;47.562;7.508;2022-08-21T07:17:01;18.00;99.90
38118;DHT22;23928;47.562;7.508;2022-08-21T07:19:27;18.20;99.90
38118;DHT22;23928;47.562;7.508;2022-08-21T07:21:57;18.20;99.90
38118;DHT22;23928;47.562;7.508;2022-08-21T07:24:24;18.20;99.90
38118;DHT22;23928;47.562;7.508;2022-08-21T07:26:50;18.30;99.90
38118;DHT22;23928;47.562;7.508;2022-08-21T07:29:15;18.30;99.90
38118;DHT22;23928;47.562;7.508;2022-08-21T07:31:41;18.50;99.90
38118;DHT22;23928;47.562;7.508;2022-08-21T07:34:07;18.70;99.90
38118;DHT22;23928;47.562;7.508;2022-08-21T07:36:33;18.80;99.90
38118;DHT22;23928;47.562;7.508;2022-08-21T07:38:59;18.90;99.90
38118;DHT22;23928;47.562;7.508;2022-08-21T07:41:28;18.90;99.90
38118;DHT22;23928;47.562;7.508;2022-08-21T07:43:56;18.90;99.90
38118;DHT22;23928;47.562;7.508;2022-08-21T07:46:22;19.00;99.90
38118;DHT22;23928;47.562;7.508;2022-08-21T07:48:48;19.00;99.90
38118;DHT22;23928;47.562;7.508;2022-08-21T07:51:15;19.10;99.90
38118;DHT22;23928;47.562;7.508;2022-08-21T07:53:46;19.10;99.90
38118;DHT22;23928;47.562;7.508;2022-08-21T07:56:12;19.00;99.90
38118;DHT22;23928;47.562;7.508;2022-08-21T07:58:38;18.90;99.90
38118;DHT22;23928;47.562;7.508;2022-08-21T08:01:08;19.00;99.90
38118;DHT22;23928;47.562;7.508;2022-08-21T08:03:37;19.00;99.90
38118;DHT22;23928;47.562;7.508;2022-08-21T08:06:04;19.10;99.90
38118;DHT22;23928;47.562;7.508;2022-08-21T08:08:30;19.40;99.90
38118;DHT22;23928;47.562;7.508;2022-08-21T08:10:57;19.60;99.90
38118;DHT22;23928;47.562;7.508;2022-08-21T08:13:24;19.60;99.90
38118;DHT22;23928;47.562;7.508;2022-08-21T08:15:50;19.50;99.90
38118;DHT22;23928;47.562;7.508;2022-08-21T08:18:16;19.40;99.90
38118;DHT22;23928;47.562;7.508;2022-08-21T08:20:47;19.40;99.90
38118;DHT22;23928;47.562;7.508;2022-08-21T08:23:14;19.50;99.90
38118;DHT22;23928;47.562;7.508;2022-08-21T08:25:40;19.50;99.90
38118;DHT22;23928;47.562;7.508;2022-08-21T08:28:06;19.50;99.90
38118;DHT22;23928;47.562;7.508;2022-08-21T08:30:33;19.50;99.90
38118;DHT22;23928;47.562;7.508;2022-08-21T08:32:58;19.60;99.90
38118;DHT22;23928;47.562;7.508;2022-08-21T08:35:25;19.80;99.90
38118;DHT22;23928;47.562;7.508;2022-08-21T08:37:51;19.90;99.90
38118;DHT22;23928;47.562;7.508;2022-08-21T08:40:55;19.80;99.90
38118;DHT22;23928;47.562;7.508;2022-08-21T08:43:12;19.80;99.90
38118;DHT22;23928;47.562;7.508;2022-08-21T08:45:40;20.00;99.90
38118;DHT22;23928;47.562;7.508;2022-08-21T08:48:13;20.40;99.90
38118;DHT22;23928;47.562;7.508;2022-08-21T08:50:55;20.50;99.90
38118;DHT22;23928;47.562;7.508;2022-08-21T08:53:30;20.60;99.90
38118;DHT22;23928;47.562;7.508;2022-08-21T08:56:00;20.70;99.90
38118;DHT22;23928;47.562;7.508;2022-08-21T08:58:33;20.70;99.90
38118;DHT22;23928;47.562;7.508;2022-08-21T09:01:00;20.40;99.90
38118;DHT22;23928;47.562;7.508;2022-08-21T09:03:27;20.30;99.90
38118;DHT22;23928;47.562;7.508;2022-08-21T09:06:19;20.70;99.90
38118;DHT22;23928;47.562;7.508;2022-08-21T09:09:13;20.90;99.90
38118;DHT22;23928;47.562;7.508;2022-08-21T09:11:45;21.00;99.90
38118;DHT22;23928;47.562;7.508;2022-08-21T09:25:21;21.20;99.90
38118;DHT22;23928;47.562;7.508;2022-08-21T09:27:48;21.30;99.90
38118;DHT22;23928;47.562;7.508;2022-08-21T09:30:14;21.40;99.90
38118;DHT22;23928;47.562;7.508;2022-08-21T09:32:40;21.60;99.90
38118;DHT22;23928;47.562;7.508;2022-08-21T09:40:40;21.80;99.90
38118;DHT22;23928;47.562;7.508;2022-08-21T09:45:39;22.00;99.90
38118;DHT22;23928;47.562;7.508;2022-08-21T09:48:14;22.20;99.90
38118;DHT22;23928;47.562;7.508;2022-08-21T09:50:41;22.20;99.90
38118;DHT22;23928;47.562;7.508;2022-08-21T09:53:27;22.00;99.90
38118;DHT22;23928;47.562;7.508;2022-08-21T09:56:05;22.30;99.90
38118;DHT22;23928;47.562;7.508;2022-08-21T09:58:59;22.40;99.90
38118;DHT22;23928;47.562;7.508;2022-08-21T10:01:25;22.50;99.90
38118;DHT22;23928;47.562;7.508;2022-08-21T10:04:28;22.60;99.90
38118;DHT22;23928;47.562;7.508;2022-08-21T10:06:53;22.70;99.90
38118;DHT22;23928;47.562;7.508;2022-08-21T10:09:20;22.70;99.90
38118;DHT22;23928;47.562;7.508;2022-08-21T10:20:20;23.10;99.90
38118;DHT22;23928;47.562;7.508;2022-08-21T10:25:38;23.50;99.90
38118;DHT22;23928;47.562;7.508;2022-08-21T10:28:11;23.50;99.90
38118;DHT22;23928;47.562;7.508;2022-08-21T10:31:06;23.30;99.90
38118;DHT22;23928;47.562;7.508;2022-08-21T10:34:17;23.50;99.90
38118;DHT22;23928;47.562;7.508;2022-08-21T10:39:55;23.40;99.90
38118;DHT22;23928;47.562;7.508;2022-08-21T10:42:47;23.30;99.90
38118;DHT22;23928;47.562;7.508;2022-08-21T10:48:06;23.50;99.90
38118;DHT22;23928;47.562;7.508;2022-08-21T10:56:24;23.50;99.90
38118;DHT22;23928;47.562;7.508;2022-08-21T11:01:44;23.10;99.90
38118;DHT22;23928;47.562;7.508;2022-08-21T11:06:46;22.60;99.90
38118;DHT22;23928;47.562;7.508;2022-08-21T11:09:18;22.70;99.90
38118;DHT22;23928;47.562;7.508;2022-08-21T11:11:50;22.40;99.90
38118;DHT22;23928;47.562;7.508;2022-08-21T11:14:41;22.50;99.90
38118;DHT22;23928;47.562;7.508;2022-08-21T11:17:13;22.70;99.90
38118;DHT22;23928;47.562;7.508;2022-08-21T11:22:25;22.80;99.90
38118;DHT22;23928;47.562;7.508;2022-08-21T11:25:44;23.00;99.90
38118;DHT22;23928;47.562;7.508;2022-08-21T11:28:02;23.50;99.90
38118;DHT22;23928;47.562;7.508;2022-08-21T11:33:54;24.70;99.90
38118;DHT22;23928;47.562;7.508;2022-08-21T11:46:55;25.60;99.90
38118;DHT22;23928;47.562;7.508;2022-08-21T11:52:41;25.80;99.90
38118;DHT22;23928;47.562;7.508;2022-08-21T11:55:30;25.20;99.90
38118;DHT22;23928;47.562;7.508;2022-08-21T11:57:58;25.30;99.90
38118;DHT22;23928;47.562;7.508;2022-08-21T12:00:29;24.60;99.90
38118;DHT22;23928;47.562;7.508;2022-08-21T12:02:58;24.40;99.90
38118;DHT22;23928;47.562;7.508;2022-08-21T12:05:34;24.10;99.90
38118;DHT22;23928;47.562;7.508;2022-08-21T12:08:14;24.10;99.90
38118;DHT22;23928;47.562;7.508;2022-08-21T12:10:46;24.10;99.90
38118;DHT22;23928;47.562;7.508;2022-08-21T12:13:24;24.80;99.90
38118;DHT22;23928;47.562;7.508;2022-08-21T12:15:51;25.30;99.90
38118;DHT22;23928;47.562;7.508;2022-08-21T12:18:30;25.80;99.90
38118;DHT22;23928;47.562;7.508;2022-08-21T12:21:01;26.20;99.90
38118;DHT22;23928;47.562;7.508;2022-08-21T12:23:42;26.30;99.90
38118;DHT22;23928;47.562;7.508;2022-08-21T12:28:47;25.90;99.90
38118;DHT22;23928;47.562;7.508;2022-08-21T12:31:24;25.60;99.90
38118;DHT22;23928;47.562;7.508;2022-08-21T12:33:55;25.40;99.90
38118;DHT22;23928;47.562;7.508;2022-08-21T12:36:25;25.70;99.90
38118;DHT22;23928;47.562;7.508;2022-08-21T12:39:05;26.00;99.90
38118;DHT22;23928;47.562;7.508;2022-08-21T12:42:15;26.10;99.90
38118;DHT22;23928;47.562;7.508;2022-08-21T12:44:49;26.50;99.90
38118;DHT22;23928;47.562;7.508;2022-08-21T12:47:32;25.60;99.90
38118;DHT22;23928;47.562;7.508;2022-08-21T12:52:59;26.50;99.90
38118;DHT22;23928;47.562;7.508;2022-08-21T12:55:30;26.40;99.90
38118;DHT22;23928;47.562;7.508;2022-08-21T12:57:56;25.90;99.90
38118;DHT22;23928;47.562;7.508;2022-08-21T13:00:25;25.70;99.90
38118;DHT22;23928;47.562;7.508;2022-08-21T13:02:52;25.70;99.90
38118;DHT22;23928;47.562;7.508;2022-08-21T13:05:35;26.00;99.90
38118;DHT22;23928;47.562;7.508;2022-08-21T13:08:06;26.10;99.90
38118;DHT22;23928;47.562;7.508;2022-08-21T13:10:34;26.40;99.90
38118;DHT22;23928;47.562;7.508;2022-08-21T13:13:06;26.40;99.90
38118;DHT22;23928;47.562;7.508;2022-08-21T13:15:34;26.30;99.90
38118;DHT22;23928;47.562;7.508;2022-08-21T13:18:04;26.80;99.90
38118;DHT22;23928;47.562;7.508;2022-08-21T13:20:34;27.00;99.90
38118;DHT22;23928;47.562;7.508;2022-08-21T13:23:07;26.60;99.90
38118;DHT22;23928;47.562;7.508;2022-08-21T13:25:37;26.20;99.90
38118;DHT22;23928;47.562;7.508;2022-08-21T13:28:12;26.40;99.90
38118;DHT22;23928;47.562;7.508;2022-08-21T13:30:48;26.50;99.90
38118;DHT22;23928;47.562;7.508;2022-08-21T13:33:17;27.40;99.90
38118;DHT22;23928;47.562;7.508;2022-08-21T13:38:28;26.70;99.90
38118;DHT22;23928;47.562;7.508;2022-08-21T13:41:20;27.10;99.90
38118;DHT22;23928;47.562;7.508;2022-08-21T13:43:49;27.80;99.90
38118;DHT22;23928;47.562;7.508;2022-08-21T13:46:17;26.70;99.90
38118;DHT22;23928;47.562;7.508;2022-08-21T13:48:45;26.70;99.90
38118;DHT22;23928;47.562;7.508;2022-08-21T13:51:11;27.40;99.90
38118;DHT22;23928;47.562;7.508;2022-08-21T13:53:49;26.90;99.90
38118;DHT22;23928;47.562;7.508;2022-08-21T13:56:41;26.30;99.90
38118;DHT22;23928;47.562;7.508;2022-08-21T13:59:07;26.60;99.90
38118;DHT22;23928;47.562;7.508;2022-08-21T14:01:37;27.20;99.90
38118;DHT22;23928;47.562;7.508;2022-08-21T14:04:18;27.20;99.90
38118;DHT22;23928;47.562;7.508;2022-08-21T14:06:44;27.70;99.90
38118;DHT22;23928;47.562;7.508;2022-08-21T14:09:20;27.60;99.90
38118;DHT22;23928;47.562;7.508;2022-08-21T14:11:47;28.00;99.90
38118;DHT22;23928;47.562;7.508;2022-08-21T14:14:23;27.50;99.90
38118;DHT22;23928;47.562;7.508;2022-08-21T14:16:55;27.40;99.90
38118;DHT22;23928;47.562;7.508;2022-08-21T14:21:51;27.50;99.90
38118;DHT22;23928;47.562;7.508;2022-08-21T14:27:07;28.50;99.90
38118;DHT22;23928;47.562;7.508;2022-08-21T14:29:37;29.00;99.90
38118;DHT22;23928;47.562;7.508;2022-08-21T14:32:14;28.60;99.90
38118;DHT22;23928;47.562;7.508;2022-08-21T14:34:40;29.30;99.90
38118;DHT22;23928;47.562;7.508;2022-08-21T14:37:06;29.20;99.90
38118;DHT22;23928;47.562;7.508;2022-08-21T14:39:32;29.00;99.90
38118;DHT22;23928;47.562;7.508;2022-08-21T14:41:58;28.90;99.90
38118;DHT22;23928;47.562;7.508;2022-08-21T14:44:24;28.50;99.90
38118;DHT22;23928;47.562;7.508;2022-08-21T14:46:50;28.70;99.90
38118;DHT22;23928;47.562;7.508;2022-08-21T14:49:16;28.60;99.90
38118;DHT22;23928;47.562;7.508;2022-08-21T14:51:41;28.80;99.90
38118;DHT22;23928;47.562;7.508;2022-08-21T14:54:07;28.60;99.90
38118;DHT22;23928;47.562;7.508;2022-08-21T14:56:34;28.50;99.90
38118;DHT22;23928;47.562;7.508;2022-08-21T14:59:06;28.30;99.90
38118;DHT22;23928;47.562;7.508;2022-08-21T15:01:36;27.90;99.90
38118;DHT22;23928;47.562;7.508;2022-08-21T15:04:02;27.60;99.90
38118;DHT22;23928;47.562;7.508;2022-08-21T15:06:28;27.40;99.90
38118;DHT22;23928;47.562;7.508;2022-08-21T15:08:54;27.60;99.90
38118;DHT22;23928;47.562;7.508;2022-08-21T15:11:21;27.90;99.90
38118;DHT22;23928;47.562;7.508;2022-08-21T15:13:56;29.20;99.90
38118;DHT22;23928;47.562;7.508;2022-08-21T15:16:23;29.40;99.90
38118;DHT22;23928;47.562;7.508;2022-08-21T15:18:49;28.70;99.90
38118;DHT22;23928;47.562;7.508;2022-08-21T15:21:14;29.10;99.90
38118;DHT22;23928;47.562;7.508;2022-08-21T15:23:40;28.70;99.90
38118;DHT22;23928;47.562;7.508;2022-08-21T15:26:06;28.50;99.90
38118;DHT22;23928;47.562;7.508;2022-08-21T15:28:31;28.20;99.90
38118;DHT22;23928;47.562;7.508;2022-08-21T15:30:59;27.90;99.90
38118;DHT22;23928;47.562;7.508;2022-08-21T15:33:25;27.20;99.90
38118;DHT22;23928;47.562;7.508;2022-08-21T15:35:51;27.70;99.90
38118;DHT22;23928;47.562;7.508;2022-08-21T15:38:17;27.90;99.90
38118;DHT22;23928;47.562;7.508;2022-08-21T15:40:43;28.00;99.90
38118;DHT22;23928;47.562;7.508;2022-08-21T15:43:26;27.60;99.90
38118;DHT22;23928;47.562;7.508;2022-08-21T15:45:53;27.80;99.90
38118;DHT22;23928;47.562;7.508;2022-08-21T15:48:19;27.20;99.90
38118;DHT22;23928;47.562;7.508;2022-08-21T15:50:45;26.60;99.90
38118;DHT22;23928;47.562;7.508;2022-08-21T15:53:11;27.30;99.90
38118;DHT22;23928;47.562;7.508;2022-08-21T15:55:37;27.10;99.90
38118;DHT22;23928;47.562;7.508;2022-08-21T15:58:05;27.20;99.90
38118;DHT22;23928;47.562;7.508;2022-08-21T16:00:33;27.20;99.90
38118;DHT22;23928;47.562;7.508;2022-08-21T16:03:00;27.40;99.90
38118;DHT22;23928;47.562;7.508;2022-08-21T16:05:28;27.20;99.90
38118;DHT22;23928;47.562;7.508;2022-08-21T16:07:54;27.10;99.90
38118;DHT22;23928;47.562;7.508;2022-08-21T16:10:22;27.00;99.90
38118;DHT22;23928;47.562;7.508;2022-08-21T16:12:56;26.60;99.90
38118;DHT22;23928;47.562;7.508;2022-08-21T16:15:23;26.20;99.90
38118;DHT22;23928;47.562;7.508;2022-08-21T16:17:50;26.20;99.90
38118;DHT22;23928;47.562;7.508;2022-08-21T16:20:23;25.90;99.90
38118;DHT22;23928;47.562;7.508;2022-08-21T16:22:50;25.70;99.90
38118;DHT22;23928;47.562;7.508;2022-08-21T16:25:17;25.70;99.90
38118;DHT22;23928;47.562;7.508;2022-08-21T16:27:50;25.70;99.90
38118;DHT22;23928;47.562;7.508;2022-08-21T16:30:18;25.30;99.90
38118;DHT22;23928;47.562;7.508;2022-08-21T16:32:45;25.30;99.90
38118;DHT22;23928;47.562;7.508;2022-08-21T16:35:16;25.10;99.90
38118;DHT22;23928;47.562;7.508;2022-08-21T16:37:43;25.20;99.90
38118;DHT22;23928;47.562;7.508;2022-08-21T16:40:10;25.30;99.90
38118;DHT22;23928;47.562;7.508;2022-08-21T16:42:37;25.40;99.90
38118;DHT22;23928;47.562;7.508;2022-08-21T16:45:09;25.30;99.90
38118;DHT22;23928;47.562;7.508;2022-08-21T16:47:35;25.10;99.90
38118;DHT22;23928;47.562;7.508;2022-08-21T16:50:01;25.00;99.90
38118;DHT22;23928;47.562;7.508;2022-08-21T16:52:30;25.00;99.90
38118;DHT22;23928;47.562;7.508;2022-08-21T16:54:56;24.70;99.90
38118;DHT22;23928;47.562;7.508;2022-08-21T16:57:23;24.30;99.90
38118;DHT22;23928;47.562;7.508;2022-08-21T16:59:52;24.30;99.90
38118;DHT22;23928;47.562;7.508;2022-08-21T17:02:30;24.30;99.90